sensor_id;sensor_type;location;lat;lon;timestamp;temperature;humidity
11079;DHT22;5592;49.234;7.268;2023-08-24T00:01:10;16.40;99.90
11079;DHT22;5592;49.234;7.268;2023-08-24T00:03:38;16.40;99.90
11079;DHT22;5592;49.234;7.268;2023-08-24T00:06:04;16.40;99.90
11079;DHT22;5592;49.234;7.268;2023-08-24T00:08:30;16.40;99.90
11079;DHT22;5592;49.234;7.268;2023-08-24T00:10:55;16.40;99.90
11079;DHT22;5592;49.234;7.268;2023-08-24T00:13:22;16.40;99.90
11079;DHT22;5592;49.234;7.268;2023-08-24T00:15:47;16.50;99.90
11079;DHT22;5592;49.234;7.268;2023-08-24T00:18:13;16.50;99.90
11079;DHT22;5592;49.234;7.268;2023-08-24T00:20:38;16.50;99.90
11079;DHT22;5592;49.234;7.268;2023-08-24T00:23:04;16.50;99.90
11079;DHT22;5592;49.234;7.268;2023-08-24T00:25:30;16.50;99.90
11079;DHT22;5592;49.234;7.268;2023-08-24T00:27:56;16.50;99.90
11079;DHT22;5592;49.234;7.268;2023-08-24T00:30:23;16.60;99.90
11079;DHT22;5592;49.234;7.268;2023-08-24T00:32:48;16.60;99.90
11079;DHT22;5592;49.234;7.268;2023-08-24T00:35:14;16.70;99.90
11079;DHT22;5592;49.234;7.268;2023-08-24T00:37:40;16.70;99.90
11079;DHT22;5592;49.234;7.268;2023-08-24T00:40:07;16.70;99.90
11079;DHT22;5592;49.234;7.268;2023-08-24T00:42:43;16.70;99.90
11079;DHT22;5592;49.234;7.268;2023-08-24T00:45:10;16.70;99.90
11079;DHT22;5592;49.234;7.268;2023-08-24T00:47:38;16.70;99.90
11079;DHT22;5592;49.234;7.268;2023-08-24T00:50:06;16.70;99.90
11079;DHT22;5592;49.234;7.268;2023-08-24T00:52:32;16.70;99.90
11079;DHT22;5592;49.234;7.268;2023-08-24T00:55:01;16.60;99.90
11079;DHT22;5592;49.234;7.268;2023-08-24T00:57:27;16.70;99.90
11079;DHT22;5592;49.234;7.268;2023-08-24T00:59:53;16.70;99.90
11079;DHT22;5592;49.234;7.268;2023-08-24T01:02:19;16.80;99.90
11079;DHT22;5592;49.234;7.268;2023-08-24T01:04:46;16.80;99.90
11079;DHT22;5592;49.234;7.268;2023-08-24T01:07:12;16.80;99.90
11079;DHT22;5592;49.234;7.268;2023-08-24T01:09:39;16.70;99.90
11079;DHT22;5592;49.234;7.268;2023-08-24T01:12:20;16.70;99.90
11079;DHT22;5592;49.234;7.268;2023-08-24T01:15:18;16.70;99.90
11079;DHT22;5592;49.234;7.268;2023-08-24T01:17:46;16.70;99.90
11079;DHT22;5592;49.234;7.268;2023-08-24T01:20:13;16.60;99.90
11079;DHT22;5592;49.234;7.268;2023-08-24T01:25:43;16.50;99.90
11079;DHT22;5592;49.234;7.268;2023-08-24T01:28:12;16.50;99.90
11079;DHT22;5592;49.234;7.268;2023-08-24T01:30:38;16.40;99.90
11079;DHT22;5592;49.234;7.268;2023-08-24T01:33:04;16.40;99.90
11079;DHT22;5592;49.234;7.268;2023-08-24T01:35:31;16.50;99.90
11079;DHT22;5592;49.234;7.268;2023-08-24T01:37:58;16.40;99.90
11079;DHT22;5592;49.234;7.268;2023-08-24T01:40:36;16.40;99.90
11079;DHT22;5592;49.234;7.268;2023-08-24T01:43:07;16.40;99.90
11079;DHT22;5592;49.234;7.268;2023-08-24T01:45:35;16.40;99.90
11079;DHT22;5592;49.234;7.268;2023-08-24T01:48:02;16.40;99.90
11079;DHT22;5592;49.234;7.268;2023-08-24T01:50:32;16.40;99.90
11079;DHT22;5592;49.234;7.268;2023-08-24T01:52:58;16.50;99.90
11079;DHT22;5592;49.234;7.268;2023-08-24T01:55:24;16.50;99.90
11079;DHT22;5592;49.234;7.268;2023-08-24T01:57:50;16.50;99.90
11079;DHT22;5592;49.234;7.268;2023-08-24T02:00:16;16.50;99.90
11079;DHT22;5592;49.234;7.268;2023-08-24T02:02:44;16.50;99.90
11079;DHT22;5592;49.234;7.268;2023-08-24T02:05:10;16.50;99.90
11079;DHT22;5592;49.234;7.268;2023-08-24T02:07:36;16.50;99.90
11079;DHT22;5592;49.234;7.268;2023-08-24T02:10:01;16.50;99.90
11079;DHT22;5592;49.234;7.268;2023-08-24T02:12:27;16.50;99.90
11079;DHT22;5592;49.234;7.268;2023-08-24T02:14:53;16.60;99.90
11079;DHT22;5592;49.234;7.268;2023-08-24T02:17:18;16.60;99.90
11079;DHT22;5592;49.234;7.268;2023-08-24T02:19:44;16.70;99.90
11079;DHT22;5592;49.234;7.268;2023-08-24T02:22:09;16.80;99.90
11079;DHT22;5592;49.234;7.268;2023-08-24T02:24:35;16.80;99.90
11079;DHT22;5592;49.234;7.268;2023-08-24T02:27:00;16.80;99.90
11079;DHT22;5592;49.234;7.268;2023-08-24T02:29:26;16.70;99.90
11079;DHT22;5592;49.234;7.268;2023-08-24T02:31:53;16.70;99.90
11079;DHT22;5592;49.234;7.268;2023-08-24T02:34:18;16.70;99.90
11079;DHT22;5592;49.234;7.268;2023-08-24T02:36:44;16.70;99.90
11079;DHT22;5592;49.234;7.268;2023-08-24T02:39:10;16.80;99.90
11079;DHT22;5592;49.234;7.268;2023-08-24T02:41:35;16.80;99.90
11079;DHT22;5592;49.234;7.268;2023-08-24T02:44:01;16.80;99.90
11079;DHT22;5592;49.234;7.268;2023-08-24T02:46:27;16.80;99.90
11079;DHT22;5592;49.234;7.268;2023-08-24T02:48:53;16.80;99.90
11079;DHT22;5592;49.234;7.268;2023-08-24T02:51:21;16.80;99.90
11079;DHT22;5592;49.234;7.268;2023-08-24T02:53:47;16.80;99.90
11079;DHT22;5592;49.234;7.268;2023-08-24T02:56:12;16.90;99.90
11079;DHT22;5592;49.234;7.268;2023-08-24T02:58:38;16.90;99.90
11079;DHT22;5592;49.234;7.268;2023-08-24T03:01:07;16.90;99.90
11079;DHT22;5592;49.234;7.268;2023-08-24T03:03:34;16.90;99.90
11079;DHT22;5592;49.234;7.268;2023-08-24T03:06:02;16.90;99.90
11079;DHT22;5592;49.234;7.268;2023-08-24T03:08:29;16.90;99.90
11079;DHT22;5592;49.234;7.268;2023-08-24T03:10:54;16.90;99.90
11079;DHT22;5592;49.234;7.268;2023-08-24T03:13:20;16.90;99.90
11079;DHT22;5592;49.234;7.268;2023-08-24T03:15:46;16.90;99.90
11079;DHT22;5592;49.234;7.268;2023-08-24T03:18:12;16.90;99.90
11079;DHT22;5592;49.234;7.268;2023-08-24T03:20:38;17.00;99.90
11079;DHT22;5592;49.234;7.268;2023-08-24T03:23:04;17.00;99.90
11079;DHT22;5592;49.234;7.268;2023-08-24T03:25:34;17.00;99.90
11079;DHT22;5592;49.234;7.268;2023-08-24T03:28:01;17.00;99.90
11079;DHT22;5592;49.234;7.268;2023-08-24T03:30:27;17.00;99.90
11079;DHT22;5592;49.234;7.268;2023-08-24T03:32:52;17.00;99.90
11079;DHT22;5592;49.234;7.268;2023-08-24T03:35:18;17.00;99.90
11079;DHT22;5592;49.234;7.268;2023-08-24T03:37:43;16.90;99.90
11079;DHT22;5592;49.234;7.268;2023-08-24T03:40:09;16.90;99.90
11079;DHT22;5592;49.234;7.268;2023-08-24T03:42:35;16.80;99.90
11079;DHT22;5592;49.234;7.268;2023-08-24T03:45:01;16.70;99.90
11079;DHT22;5592;49.234;7.268;2023-08-24T03:47:26;16.70;99.90
11079;DHT22;5592;49.234;7.268;2023-08-24T03:49:52;16.70;99.90
11079;DHT22;5592;49.234;7.268;2023-08-24T03:52:17;16.60;99.90
11079;DHT22;5592;49.234;7.268;2023-08-24T03:54:43;16.60;99.90
11079;DHT22;5592;49.234;7.268;2023-08-24T03:57:09;16.50;99.90
11079;DHT22;5592;49.234;7.268;2023-08-24T03:59:34;16.50;99.90
11079;DHT22;5592;49.234;7.268;2023-08-24T04:02:00;16.60;99.90
11079;DHT22;5592;49.234;7.268;2023-08-24T04:04:29;16.60;99.90
11079;DHT22;5592;49.234;7.268;2023-08-24T04:06:55;16.60;99.90
11079;DHT22;5592;49.234;7.268;2023-08-24T04:09:20;16.60;99.90
11079;DHT22;5592;49.234;7.268;2023-08-24T04:11:46;16.60;99.90
11079;DHT22;5592;49.234;7.268;2023-08-24T04:14:11;16.60;99.90
11079;DHT22;5592;49.234;7.268;2023-08-24T04:16:37;16.60;99.90
11079;DHT22;5592;49.234;7.268;2023-08-24T04:19:03;16.70;99.90
11079;DHT22;5592;49.234;7.268;2023-08-24T04:21:28;16.70;99.90
11079;DHT22;5592;49.234;7.268;2023-08-24T04:23:54;16.70;99.90
11079;DHT22;5592;49.234;7.268;2023-08-24T04:26:19;16.80;99.90
11079;DHT22;5592;49.234;7.268;2023-08-24T04:28:45;16.80;99.90
11079;DHT22;5592;49.234;7.268;2023-08-24T04:31:11;16.90;99.90
11079;DHT22;5592;49.234;7.268;2023-08-24T04:33:36;16.90;99.90
11079;DHT22;5592;49.234;7.268;2023-08-24T04:36:02;17.00;99.90
11079;DHT22;5592;49.234;7.268;2023-08-24T04:38:28;17.00;99.90
11079;DHT22;5592;49.234;7.268;2023-08-24T04:40:55;17.10;99.90
11079;DHT22;5592;49.234;7.268;2023-08-24T04:43:22;17.20;99.90
11079;DHT22;5592;49.234;7.268;2023-08-24T04:45:49;17.30;99.90
11079;DHT22;5592;49.234;7.268;2023-08-24T04:48:20;17.30;99.90
11079;DHT22;5592;49.234;7.268;2023-08-24T04:50:47;17.40;99.90
11079;DHT22;5592;49.234;7.268;2023-08-24T04:53:15;17.50;99.90
11079;DHT22;5592;49.234;7.268;2023-08-24T04:55:41;17.50;99.90
11079;DHT22;5592;49.234;7.268;2023-08-24T04:58:10;17.60;99.90
11079;DHT22;5592;49.234;7.268;2023-08-24T05:00:37;17.70;99.90
11079;DHT22;5592;49.234;7.268;2023-08-24T05:03:06;17.70;99.90
11079;DHT22;5592;49.234;7.268;2023-08-24T05:05:32;17.80;99.90
11079;DHT22;5592;49.234;7.268;2023-08-24T05:07:59;17.90;99.90
11079;DHT22;5592;49.234;7.268;2023-08-24T05:10:25;18.10;99.90
11079;DHT22;5592;49.234;7.268;2023-08-24T05:12:51;18.20;99.90
11079;DHT22;5592;49.234;7.268;2023-08-24T05:15:17;18.20;99.90
11079;DHT22;5592;49.234;7.268;2023-08-24T05:17:43;18.20;99.90
11079;DHT22;5592;49.234;7.268;2023-08-24T05:20:08;18.20;99.90
11079;DHT22;5592;49.234;7.268;2023-08-24T05:22:40;18.30;99.90
11079;DHT22;5592;49.234;7.268;2023-08-24T05:25:06;18.30;99.90
11079;DHT22;5592;49.234;7.268;2023-08-24T05:27:32;18.30;99.90
11079;DHT22;5592;49.234;7.268;2023-08-24T05:29:58;18.40;99.90
11079;DHT22;5592;49.234;7.268;2023-08-24T05:32:24;18.40;99.90
11079;DHT22;5592;49.234;7.268;2023-08-24T05:34:49;18.40;99.90
11079;DHT22;5592;49.234;7.268;2023-08-24T05:37:15;18.40;99.90
11079;DHT22;5592;49.234;7.268;2023-08-24T05:39:41;18.40;99.90
11079;DHT22;5592;49.234;7.268;2023-08-24T05:42:08;18.40;99.90
11079;DHT22;5592;49.234;7.268;2023-08-24T05:44:34;18.40;99.90
11079;DHT22;5592;49.234;7.268;2023-08-24T05:46:59;18.40;99.90
11079;DHT22;5592;49.234;7.268;2023-08-24T05:49:25;18.40;99.90
11079;DHT22;5592;49.234;7.268;2023-08-24T05:51:51;18.40;99.90
11079;DHT22;5592;49.234;7.268;2023-08-24T05:54:16;18.40;99.90
11079;DHT22;5592;49.234;7.268;2023-08-24T05:56:44;18.40;99.90
11079;DHT22;5592;49.234;7.268;2023-08-24T05:59:10;18.50;99.90
11079;DHT22;5592;49.234;7.268;2023-08-24T06:01:35;18.70;99.90
11079;DHT22;5592;49.234;7.268;2023-08-24T06:04:08;19.00;99.90
11079;DHT22;5592;49.234;7.268;2023-08-24T06:06:34;19.40;99.90
11079;DHT22;5592;49.234;7.268;2023-08-24T06:08:59;19.70;99.90
11079;DHT22;5592;49.234;7.268;2023-08-24T06:11:25;20.40;99.90
11079;DHT22;5592;49.234;7.268;2023-08-24T06:13:50;21.50;99.90
11079;DHT22;5592;49.234;7.268;2023-08-24T06:16:19;22.50;99.90
11079;DHT22;5592;49.234;7.268;2023-08-24T06:18:44;23.50;99.90
11079;DHT22;5592;49.234;7.268;2023-08-24T06:21:10;24.40;99.90
11079;DHT22;5592;49.234;7.268;2023-08-24T06:23:35;25.20;99.90
11079;DHT22;5592;49.234;7.268;2023-08-24T06:26:01;25.90;99.90
11079;DHT22;5592;49.234;7.268;2023-08-24T06:28:27;26.30;99.90
11079;DHT22;5592;49.234;7.268;2023-08-24T06:30:55;26.30;99.90
11079;DHT22;5592;49.234;7.268;2023-08-24T06:33:20;26.20;99.90
11079;DHT22;5592;49.234;7.268;2023-08-24T06:35:46;26.10;99.90
11079;DHT22;5592;49.234;7.268;2023-08-24T06:38:12;26.20;99.90
11079;DHT22;5592;49.234;7.268;2023-08-24T06:40:38;27.00;99.90
11079;DHT22;5592;49.234;7.268;2023-08-24T06:43:04;28.20;99.90
11079;DHT22;5592;49.234;7.268;2023-08-24T06:45:31;29.30;99.90
11079;DHT22;5592;49.234;7.268;2023-08-24T06:47:56;30.30;99.90
11079;DHT22;5592;49.234;7.268;2023-08-24T06:50:22;30.60;99.90
11079;DHT22;5592;49.234;7.268;2023-08-24T06:52:48;31.10;99.90
11079;DHT22;5592;49.234;7.268;2023-08-24T06:55:14;31.70;99.90
11079;DHT22;5592;49.234;7.268;2023-08-24T06:57:39;32.50;99.90
11079;DHT22;5592;49.234;7.268;2023-08-24T07:00:06;32.80;99.90
11079;DHT22;5592;49.234;7.268;2023-08-24T07:02:34;33.30;99.90
11079;DHT22;5592;49.234;7.268;2023-08-24T07:05:00;32.90;99.90
11079;DHT22;5592;49.234;7.268;2023-08-24T07:07:26;32.30;99.90
11079;DHT22;5592;49.234;7.268;2023-08-24T07:09:52;31.90;99.90
11079;DHT22;5592;49.234;7.268;2023-08-24T07:12:17;31.80;99.90
11079;DHT22;5592;49.234;7.268;2023-08-24T07:14:43;31.60;99.90
11079;DHT22;5592;49.234;7.268;2023-08-24T07:17:09;31.70;99.90
11079;DHT22;5592;49.234;7.268;2023-08-24T07:19:35;32.30;99.90
11079;DHT22;5592;49.234;7.268;2023-08-24T07:22:01;32.90;99.90
11079;DHT22;5592;49.234;7.268;2023-08-24T07:24:26;33.70;99.90
11079;DHT22;5592;49.234;7.268;2023-08-24T07:26:54;33.50;99.90
11079;DHT22;5592;49.234;7.268;2023-08-24T07:29:20;34.10;99.90
11079;DHT22;5592;49.234;7.268;2023-08-24T07:31:46;35.10;99.90
11079;DHT22;5592;49.234;7.268;2023-08-24T07:34:11;35.50;99.90
11079;DHT22;5592;49.234;7.268;2023-08-24T07:36:37;35.80;99.90
11079;DHT22;5592;49.234;7.268;2023-08-24T07:39:02;36.40;99.90
11079;DHT22;5592;49.234;7.268;2023-08-24T07:41:28;36.90;98.00
11079;DHT22;5592;49.234;7.268;2023-08-24T07:43:54;36.70;97.70
11079;DHT22;5592;49.234;7.268;2023-08-24T07:46:19;37.10;99.80
11079;DHT22;5592;49.234;7.268;2023-08-24T07:48:45;37.70;97.60
11079;DHT22;5592;49.234;7.268;2023-08-24T07:51:11;38.30;97.50
11079;DHT22;5592;49.234;7.268;2023-08-24T07:53:36;38.60;97.00
11079;DHT22;5592;49.234;7.268;2023-08-24T07:56:02;38.60;93.30
11079;DHT22;5592;49.234;7.268;2023-08-24T07:58:28;38.50;94.80
11079;DHT22;5592;49.234;7.268;2023-08-24T08:00:53;38.30;92.50
11079;DHT22;5592;49.234;7.268;2023-08-24T08:03:19;38.40;91.10
11079;DHT22;5592;49.234;7.268;2023-08-24T08:05:47;38.20;91.40
11079;DHT22;5592;49.234;7.268;2023-08-24T08:08:15;38.30;91.00
11079;DHT22;5592;49.234;7.268;2023-08-24T08:10:42;38.30;89.50
11079;DHT22;5592;49.234;7.268;2023-08-24T08:13:08;38.70;91.40
11079;DHT22;5592;49.234;7.268;2023-08-24T08:15:36;39.30;90.10
11079;DHT22;5592;49.234;7.268;2023-08-24T08:18:04;39.60;86.10
11079;DHT22;5592;49.234;7.268;2023-08-24T08:20:30;39.70;87.00
11079;DHT22;5592;49.234;7.268;2023-08-24T08:22:55;39.20;90.00
11079;DHT22;5592;49.234;7.268;2023-08-24T08:25:21;38.90;89.80
11079;DHT22;5592;49.234;7.268;2023-08-24T08:27:47;39.40;85.00
11079;DHT22;5592;49.234;7.268;2023-08-24T08:30:13;39.10;85.70
11079;DHT22;5592;49.234;7.268;2023-08-24T08:32:40;39.60;88.70
11079;DHT22;5592;49.234;7.268;2023-08-24T08:35:06;39.90;85.50
11079;DHT22;5592;49.234;7.268;2023-08-24T08:37:31;39.90;87.00
11079;DHT22;5592;49.234;7.268;2023-08-24T08:39:57;39.80;85.70
11079;DHT22;5592;49.234;7.268;2023-08-24T08:42:23;40.40;84.90
11079;DHT22;5592;49.234;7.268;2023-08-24T08:44:49;40.20;81.00
11079;DHT22;5592;49.234;7.268;2023-08-24T08:47:18;40.30;80.50
11079;DHT22;5592;49.234;7.268;2023-08-24T08:49:45;40.30;82.40
11079;DHT22;5592;49.234;7.268;2023-08-24T08:52:12;40.50;79.00
11079;DHT22;5592;49.234;7.268;2023-08-24T08:54:38;39.50;86.10
11079;DHT22;5592;49.234;7.268;2023-08-24T08:57:04;39.30;82.50
11079;DHT22;5592;49.234;7.268;2023-08-24T08:59:30;39.50;82.60
11079;DHT22;5592;49.234;7.268;2023-08-24T09:01:58;39.60;84.40
11079;DHT22;5592;49.234;7.268;2023-08-24T09:04:27;39.90;80.40
11079;DHT22;5592;49.234;7.268;2023-08-24T09:06:53;39.70;79.60
11079;DHT22;5592;49.234;7.268;2023-08-24T09:09:18;39.50;78.50
11079;DHT22;5592;49.234;7.268;2023-08-24T09:11:44;38.70;79.00
11079;DHT22;5592;49.234;7.268;2023-08-24T09:14:12;38.10;80.60
11079;DHT22;5592;49.234;7.268;2023-08-24T09:16:39;38.20;84.10
11079;DHT22;5592;49.234;7.268;2023-08-24T09:19:05;38.60;81.90
11079;DHT22;5592;49.234;7.268;2023-08-24T09:21:36;37.70;78.50
11079;DHT22;5592;49.234;7.268;2023-08-24T09:24:02;37.10;80.90
11079;DHT22;5592;49.234;7.268;2023-08-24T09:26:33;37.00;79.60
11079;DHT22;5592;49.234;7.268;2023-08-24T09:29:00;36.60;81.20
11079;DHT22;5592;49.234;7.268;2023-08-24T09:31:36;36.70;82.30
11079;DHT22;5592;49.234;7.268;2023-08-24T09:34:02;36.40;80.60
11079;DHT22;5592;49.234;7.268;2023-08-24T09:36:33;36.60;83.20
11079;DHT22;5592;49.234;7.268;2023-08-24T09:39:00;36.40;84.90
11079;DHT22;5592;49.234;7.268;2023-08-24T09:41:44;37.00;81.50
11079;DHT22;5592;49.234;7.268;2023-08-24T09:44:10;36.80;81.50
11079;DHT22;5592;49.234;7.268;2023-08-24T09:46:37;37.50;84.40
11079;DHT22;5592;49.234;7.268;2023-08-24T09:49:08;37.80;81.60
11079;DHT22;5592;49.234;7.268;2023-08-24T09:51:35;38.00;81.00
11079;DHT22;5592;49.234;7.268;2023-08-24T09:54:04;38.70;80.60
11079;DHT22;5592;49.234;7.268;2023-08-24T09:56:35;38.40;78.30
11079;DHT22;5592;49.234;7.268;2023-08-24T09:59:10;37.50;79.40
11079;DHT22;5592;49.234;7.268;2023-08-24T10:01:37;36.90;81.40
11079;DHT22;5592;49.234;7.268;2023-08-24T10:04:04;36.60;82.10
11079;DHT22;5592;49.234;7.268;2023-08-24T10:06:31;37.00;82.80
11079;DHT22;5592;49.234;7.268;2023-08-24T10:09:01;37.20;80.10
11079;DHT22;5592;49.234;7.268;2023-08-24T10:11:31;37.70;79.40
11079;DHT22;5592;49.234;7.268;2023-08-24T10:17:02;37.00;82.60
11079;DHT22;5592;49.234;7.268;2023-08-24T10:19:29;37.20;84.50
11079;DHT22;5592;49.234;7.268;2023-08-24T10:21:55;37.70;79.80
11079;DHT22;5592;49.234;7.268;2023-08-24T10:24:22;37.10;80.80
11079;DHT22;5592;49.234;7.268;2023-08-24T10:26:49;36.50;81.20
11079;DHT22;5592;49.234;7.268;2023-08-24T10:29:16;35.50;81.20
11079;DHT22;5592;49.234;7.268;2023-08-24T10:31:43;35.60;82.50
11079;DHT22;5592;49.234;7.268;2023-08-24T10:34:09;35.40;80.60
11079;DHT22;5592;49.234;7.268;2023-08-24T10:36:39;35.30;84.20
11079;DHT22;5592;49.234;7.268;2023-08-24T10:39:05;35.70;82.60
11079;DHT22;5592;49.234;7.268;2023-08-24T10:41:46;36.10;84.80
11079;DHT22;5592;49.234;7.268;2023-08-24T10:44:33;36.60;81.30
11079;DHT22;5592;49.234;7.268;2023-08-24T10:47:14;36.80;81.80
11079;DHT22;5592;49.234;7.268;2023-08-24T10:49:41;36.90;87.70
11079;DHT22;5592;49.234;7.268;2023-08-24T10:52:21;36.90;84.20
11079;DHT22;5592;49.234;7.268;2023-08-24T10:54:48;35.90;80.40
11079;DHT22;5592;49.234;7.268;2023-08-24T10:57:21;35.80;83.70
11079;DHT22;5592;49.234;7.268;2023-08-24T11:00:03;36.00;81.50
11079;DHT22;5592;49.234;7.268;2023-08-24T11:02:44;35.40;82.30
11079;DHT22;5592;49.234;7.268;2023-08-24T11:05:32;34.90;83.20
11079;DHT22;5592;49.234;7.268;2023-08-24T11:08:00;34.20;87.70
11079;DHT22;5592;49.234;7.268;2023-08-24T11:10:45;34.10;85.70
11079;DHT22;5592;49.234;7.268;2023-08-24T11:13:16;33.30;86.20
11079;DHT22;5592;49.234;7.268;2023-08-24T11:15:51;32.80;90.00
11079;DHT22;5592;49.234;7.268;2023-08-24T11:18:24;32.30;89.40
11079;DHT22;5592;49.234;7.268;2023-08-24T11:23:24;32.10;91.60
11079;DHT22;5592;49.234;7.268;2023-08-24T11:25:51;32.20;90.90
11079;DHT22;5592;49.234;7.268;2023-08-24T11:28:22;32.20;90.90
11079;DHT22;5592;49.234;7.268;2023-08-24T11:30:48;32.10;90.90
11079;DHT22;5592;49.234;7.268;2023-08-24T11:33:14;32.10;90.80
11079;DHT22;5592;49.234;7.268;2023-08-24T11:35:46;32.20;90.60
11079;DHT22;5592;49.234;7.268;2023-08-24T11:38:12;32.60;91.80
11079;DHT22;5592;49.234;7.268;2023-08-24T11:40:39;33.40;91.40
11079;DHT22;5592;49.234;7.268;2023-08-24T11:43:04;33.60;90.10
11079;DHT22;5592;49.234;7.268;2023-08-24T11:45:35;33.30;90.30
11079;DHT22;5592;49.234;7.268;2023-08-24T11:48:02;32.80;90.30
11079;DHT22;5592;49.234;7.268;2023-08-24T11:50:30;33.10;90.40
11079;DHT22;5592;49.234;7.268;2023-08-24T11:52:56;33.10;93.10
11079;DHT22;5592;49.234;7.268;2023-08-24T11:55:22;33.70;91.40
11079;DHT22;5592;49.234;7.268;2023-08-24T11:57:48;33.80;90.80
11079;DHT22;5592;49.234;7.268;2023-08-24T12:00:14;34.10;90.30
11079;DHT22;5592;49.234;7.268;2023-08-24T12:02:42;34.30;91.10
11079;DHT22;5592;49.234;7.268;2023-08-24T12:05:07;34.60;92.30
11079;DHT22;5592;49.234;7.268;2023-08-24T12:07:34;34.60;89.80
11079;DHT22;5592;49.234;7.268;2023-08-24T12:10:01;34.30;91.90
11079;DHT22;5592;49.234;7.268;2023-08-24T12:12:27;34.30;90.80
11079;DHT22;5592;49.234;7.268;2023-08-24T12:14:55;34.30;90.60
11079;DHT22;5592;49.234;7.268;2023-08-24T12:17:23;34.30;92.30
11079;DHT22;5592;49.234;7.268;2023-08-24T12:19:59;34.30;91.10
11079;DHT22;5592;49.234;7.268;2023-08-24T12:22:26;34.00;91.80
11079;DHT22;5592;49.234;7.268;2023-08-24T12:24:51;33.80;91.70
11079;DHT22;5592;49.234;7.268;2023-08-24T12:27:26;33.70;91.00
11079;DHT22;5592;49.234;7.268;2023-08-24T12:29:52;33.70;92.50
11079;DHT22;5592;49.234;7.268;2023-08-24T12:32:19;33.60;93.50
11079;DHT22;5592;49.234;7.268;2023-08-24T12:34:46;33.50;91.10
11079;DHT22;5592;49.234;7.268;2023-08-24T12:37:12;33.60;92.50
11079;DHT22;5592;49.234;7.268;2023-08-24T12:39:39;33.80;93.00
11079;DHT22;5592;49.234;7.268;2023-08-24T12:42:05;33.80;93.70
11079;DHT22;5592;49.234;7.268;2023-08-24T12:44:31;33.80;93.80
11079;DHT22;5592;49.234;7.268;2023-08-24T12:46:57;33.80;96.50
11079;DHT22;5592;49.234;7.268;2023-08-24T12:49:23;33.80;96.90
11079;DHT22;5592;49.234;7.268;2023-08-24T12:51:49;34.00;94.70
11079;DHT22;5592;49.234;7.268;2023-08-24T12:54:14;34.10;96.00
11079;DHT22;5592;49.234;7.268;2023-08-24T12:56:40;34.20;94.30
11079;DHT22;5592;49.234;7.268;2023-08-24T12:59:06;34.40;94.30
11079;DHT22;5592;49.234;7.268;2023-08-24T13:01:32;34.50;95.10
11079;DHT22;5592;49.234;7.268;2023-08-24T13:03:57;34.20;94.30
11079;DHT22;5592;49.234;7.268;2023-08-24T13:06:23;33.90;95.50
11079;DHT22;5592;49.234;7.268;2023-08-24T13:08:48;33.50;93.70
11079;DHT22;5592;49.234;7.268;2023-08-24T13:11:14;33.00;93.40
11079;DHT22;5592;49.234;7.268;2023-08-24T13:13:40;32.40;95.80
11079;DHT22;5592;49.234;7.268;2023-08-24T13:16:06;32.10;98.90
11079;DHT22;5592;49.234;7.268;2023-08-24T13:18:31;31.70;99.80
11079;DHT22;5592;49.234;7.268;2023-08-24T13:20:57;30.80;99.70
11079;DHT22;5592;49.234;7.268;2023-08-24T13:23:22;30.20;99.90
11079;DHT22;5592;49.234;7.268;2023-08-24T13:25:48;29.50;99.90
11079;DHT22;5592;49.234;7.268;2023-08-24T13:28:13;29.00;99.90
11079;DHT22;5592;49.234;7.268;2023-08-24T13:30:39;28.60;99.90
11079;DHT22;5592;49.234;7.268;2023-08-24T13:33:06;27.60;99.90
11079;DHT22;5592;49.234;7.268;2023-08-24T13:35:32;27.30;99.90
11079;DHT22;5592;49.234;7.268;2023-08-24T13:37:58;26.90;99.90
11079;DHT22;5592;49.234;7.268;2023-08-24T13:40:23;26.50;99.90
11079;DHT22;5592;49.234;7.268;2023-08-24T13:42:49;26.20;99.90
11079;DHT22;5592;49.234;7.268;2023-08-24T13:45:14;26.10;99.90
11079;DHT22;5592;49.234;7.268;2023-08-24T13:47:41;25.90;99.90
11079;DHT22;5592;49.234;7.268;2023-08-24T13:50:06;25.80;99.90
11079;DHT22;5592;49.234;7.268;2023-08-24T13:52:32;25.60;99.90
11079;DHT22;5592;49.234;7.268;2023-08-24T13:54:57;25.30;99.90
11079;DHT22;5592;49.234;7.268;2023-08-24T13:57:24;25.30;99.90
11079;DHT22;5592;49.234;7.268;2023-08-24T13:59:50;25.30;99.90
11079;DHT22;5592;49.234;7.268;2023-08-24T14:02:15;25.20;99.90
11079;DHT22;5592;49.234;7.268;2023-08-24T14:04:41;25.00;99.90
11079;DHT22;5592;49.234;7.268;2023-08-24T14:07:08;24.90;99.90
11079;DHT22;5592;49.234;7.268;2023-08-24T14:09:34;25.00;99.90
11079;DHT22;5592;49.234;7.268;2023-08-24T14:12:00;25.00;99.90
11079;DHT22;5592;49.234;7.268;2023-08-24T14:14:26;25.00;99.90
11079;DHT22;5592;49.234;7.268;2023-08-24T14:16:55;25.00;99.90
11079;DHT22;5592;49.234;7.268;2023-08-24T14:19:21;25.10;99.90
11079;DHT22;5592;49.234;7.268;2023-08-24T14:21:47;25.00;99.90
11079;DHT22;5592;49.234;7.268;2023-08-24T14:24:13;25.00;99.90
11079;DHT22;5592;49.234;7.268;2023-08-24T14:26:38;24.70;99.90
11079;DHT22;5592;49.234;7.268;2023-08-24T14:29:10;24.60;99.90
11079;DHT22;5592;49.234;7.268;2023-08-24T14:31:36;24.70;99.90
11079;DHT22;5592;49.234;7.268;2023-08-24T14:34:02;25.10;99.90
11079;DHT22;5592;49.234;7.268;2023-08-24T14:36:28;25.30;99.90
11079;DHT22;5592;49.234;7.268;2023-08-24T14:38:54;25.60;99.90
11079;DHT22;5592;49.234;7.268;2023-08-24T14:41:20;25.80;99.90
11079;DHT22;5592;49.234;7.268;2023-08-24T14:43:46;26.00;99.90
11079;DHT22;5592;49.234;7.268;2023-08-24T14:46:12;26.00;99.90
11079;DHT22;5592;49.234;7.268;2023-08-24T14:48:38;26.10;99.90
11079;DHT22;5592;49.234;7.268;2023-08-24T14:51:04;26.20;99.90
11079;DHT22;5592;49.234;7.268;2023-08-24T14:53:30;26.20;99.90
11079;DHT22;5592;49.234;7.268;2023-08-24T14:55:56;26.30;99.90
11079;DHT22;5592;49.234;7.268;2023-08-24T14:58:23;26.30;99.90
11079;DHT22;5592;49.234;7.268;2023-08-24T15:00:49;26.30;99.90
11079;DHT22;5592;49.234;7.268;2023-08-24T15:03:17;26.20;99.90
11079;DHT22;5592;49.234;7.268;2023-08-24T15:05:45;26.10;99.90
11079;DHT22;5592;49.234;7.268;2023-08-24T15:08:11;26.10;99.90
11079;DHT22;5592;49.234;7.268;2023-08-24T15:10:37;26.00;99.90
11079;DHT22;5592;49.234;7.268;2023-08-24T15:13:03;26.00;99.90
11079;DHT22;5592;49.234;7.268;2023-08-24T15:15:29;25.90;99.90
11079;DHT22;5592;49.234;7.268;2023-08-24T15:17:55;25.90;99.90
11079;DHT22;5592;49.234;7.268;2023-08-24T15:20:20;25.90;99.90
11079;DHT22;5592;49.234;7.268;2023-08-24T15:22:46;25.90;99.90
11079;DHT22;5592;49.234;7.268;2023-08-24T15:25:11;25.70;99.90
11079;DHT22;5592;49.234;7.268;2023-08-24T15:27:37;25.40;99.90
11079;DHT22;5592;49.234;7.268;2023-08-24T15:30:03;25.20;99.90
11079;DHT22;5592;49.234;7.268;2023-08-24T15:32:31;25.00;99.90
11079;DHT22;5592;49.234;7.268;2023-08-24T15:34:57;24.80;99.90
11079;DHT22;5592;49.234;7.268;2023-08-24T15:37:26;24.60;99.90
11079;DHT22;5592;49.234;7.268;2023-08-24T15:39:51;24.50;99.90
11079;DHT22;5592;49.234;7.268;2023-08-24T15:42:17;24.30;99.90
11079;DHT22;5592;49.234;7.268;2023-08-24T15:44:44;24.10;99.90
11079;DHT22;5592;49.234;7.268;2023-08-24T15:47:09;24.10;99.90
11079;DHT22;5592;49.234;7.268;2023-08-24T15:49:35;24.10;99.90
11079;DHT22;5592;49.234;7.268;2023-08-24T15:52:01;23.90;99.90